Česky Dansk Deutsch English Español Suomi Français Magyar Italiano Nederlands norsk Polski Português svenska Türkçe

 

Het Weer

Campo Grande Aeroporto (Brazilië)

07:00, 23 augustus 2016 (GMT)

NWNNE
WE
SWSSE
Home            
Campo Grande Aeroporto Ponta Pora Intl Corumba Puerto Suarez Presidente Prudente Concepcion Maringa Londrina Aeroporto Aeropuerto Guarany Cuiaba Aeroporto Foz Do Iguacu Aeroporto Barra Do Garcas Robore Iguazu Aerodrome Asuncion / Aeropuerto Bauru Mariscal Estigarribia Xavantina Uberlandia San Jose De Chiquitos Uberaba Goiania Aeroporto Leite Lopes / Ribeir

Om een weerknop op uw website of weblog te plaatsen, copieer onderstaande code en plak die in uw pagina. In het eerste vakje staat HTML-code, in het tweede vakje UBB-code.


Add to Google

Details

Wind speed:1 bf, 2 kn, 1.0 m/s, 2.3 miles/h, 3.7 km/h
Wind direction:ENE, 060°
Visibility:Greater than 10000 m, 10 km, 32800 ft, 6.2 miles
Clouds:CAVOC
Temperature:10°C, 50°F
Dew-point:5°C, 41°F
Atmospheric pressure:1020 hPa, 765.1 mmHg, 30.12 inHg, 1.007 atm
Relative humidity:71.0 %
METAR:SBCG 230700Z 06002KT CAVOK 10/05 Q1020

Snelkoppelingen

Actuele weersinformatie van de hele wereld. Voeg locaties toe met het plus (+) symbool. Deze snelkoppelingen kunnen worden toegevoegd aan Google.

Lid van de Technetium groep

website free tracking
StatCounter NetStat W3C Validator

27-10-2020 04:31:48
astro.technetium.be money.technetium.be phote.technetium.be tafeltennistafel.technetium.be www.ligfiets.net